sensor_id;sensor_type;location;lat;lon;timestamp;pressure;altitude;pressure_sealevel;temperature;humidity
69171;BME280;56279;47.902;12.308;2023-04-29T00:01:34;95106.13;;;9.84;100.00
69171;BME280;56279;47.902;12.308;2023-04-29T00:03:36;95113.25;;;9.84;100.00
69171;BME280;56279;47.902;12.308;2023-04-29T00:05:37;95109.03;;;9.83;100.00
69171;BME280;56279;47.902;12.308;2023-04-29T00:07:38;95104.81;;;9.82;100.00
69171;BME280;56279;47.902;12.308;2023-04-29T00:09:40;95116.41;;;9.81;100.00
69171;BME280;56279;47.902;12.308;2023-04-29T00:11:41;95108.00;;;9.79;100.00
69171;BME280;56279;47.902;12.308;2023-04-29T00:13:42;95103.28;;;9.75;100.00
69171;BME280;56279;47.902;12.308;2023-04-29T00:15:44;95112.56;;;9.73;100.00
69171;BME280;56279;47.902;12.308;2023-04-29T00:17:46;95103.34;;;9.70;100.00
69171;BME280;56279;47.902;12.308;2023-04-29T00:19:48;95112.59;;;9.68;100.00
69171;BME280;56279;47.902;12.308;2023-04-29T00:21:50;95110.22;;;9.66;100.00
69171;BME280;56279;47.902;12.308;2023-04-29T00:23:52;95111.53;;;9.64;100.00
69171;BME280;56279;47.902;12.308;2023-04-29T00:25:53;95112.34;;;9.64;100.00
69171;BME280;56279;47.902;12.308;2023-04-29T00:27:55;95111.00;;;9.67;100.00
69171;BME280;56279;47.902;12.308;2023-04-29T00:29:59;95103.88;;;9.67;100.00
69171;BME280;56279;47.902;12.308;2023-04-29T00:32:00;95100.16;;;9.68;100.00
69171;BME280;56279;47.902;12.308;2023-04-29T00:34:01;95104.69;;;9.68;100.00
69171;BME280;56279;47.902;12.308;2023-04-29T00:36:03;95104.94;;;9.66;100.00
69171;BME280;56279;47.902;12.308;2023-04-29T00:38:05;95103.88;;;9.67;100.00
69171;BME280;56279;47.902;12.308;2023-04-29T00:40:06;95107.56;;;9.66;100.00
69171;BME280;56279;47.902;12.308;2023-04-29T00:42:08;95104.44;;;9.64;100.00
69171;BME280;56279;47.902;12.308;2023-04-29T00:44:10;95108.66;;;9.65;100.00
69171;BME280;56279;47.902;12.308;2023-04-29T00:46:11;95099.16;;;9.64;100.00
69171;BME280;56279;47.902;12.308;2023-04-29T00:48:13;95100.50;;;9.62;100.00
69171;BME280;56279;47.902;12.308;2023-04-29T00:50:15;95099.19;;;9.59;100.00
69171;BME280;56279;47.902;12.308;2023-04-29T00:52:17;95098.97;;;9.56;100.00
69171;BME280;56279;47.902;12.308;2023-04-29T00:54:19;95098.19;;;9.55;100.00
69171;BME280;56279;47.902;12.308;2023-04-29T00:56:21;95091.34;;;9.54;100.00
69171;BME280;56279;47.902;12.308;2023-04-29T00:58:23;95095.03;;;9.53;100.00
69171;BME280;56279;47.902;12.308;2023-04-29T01:00:30;95090.31;;;9.50;100.00
69171;BME280;56279;47.902;12.308;2023-04-29T01:02:32;95093.75;;;9.51;100.00
69171;BME280;56279;47.902;12.308;2023-04-29T01:04:34;95097.16;;;9.51;100.00
69171;BME280;56279;47.902;12.308;2023-04-29T01:06:48;95098.22;;;9.50;100.00
69171;BME280;56279;47.902;12.308;2023-04-29T01:11:22;95097.91;;;9.57;100.00
69171;BME280;56279;47.902;12.308;2023-04-29T01:13:36;95086.03;;;9.59;100.00
69171;BME280;56279;47.902;12.308;2023-04-29T01:15:51;95090.75;;;9.62;100.00
69171;BME280;56279;47.902;12.308;2023-04-29T01:18:03;95085.44;;;9.67;100.00
69171;BME280;56279;47.902;12.308;2023-04-29T01:20:06;95085.41;;;9.72;100.00
69171;BME280;56279;47.902;12.308;2023-04-29T01:22:09;95086.13;;;9.78;100.00
69171;BME280;56279;47.902;12.308;2023-04-29T01:24:10;95083.97;;;9.85;100.00
69171;BME280;56279;47.902;12.308;2023-04-29T01:26:12;95089.97;;;9.91;100.00
69171;BME280;56279;47.902;12.308;2023-04-29T01:28:55;95088.34;;;9.95;100.00
69171;BME280;56279;47.902;12.308;2023-04-29T01:35:57;95091.75;;;10.00;100.00
69171;BME280;56279;47.902;12.308;2023-04-29T01:43:09;95095.22;;;9.96;100.00
69171;BME280;56279;47.902;12.308;2023-04-29T01:45:15;95087.00;;;9.97;100.00
69171;BME280;56279;47.902;12.308;2023-04-29T01:47:17;95101.50;;;10.00;100.00
69171;BME280;56279;47.902;12.308;2023-04-29T01:49:25;95088.31;;;10.00;100.00
69171;BME280;56279;47.902;12.308;2023-04-29T01:51:27;95091.75;;;10.00;100.00
69171;BME280;56279;47.902;12.308;2023-04-29T01:53:29;95089.38;;;9.99;100.00
69171;BME280;56279;47.902;12.308;2023-04-29T01:55:31;95091.50;;;9.97;100.00
69171;BME280;56279;47.902;12.308;2023-04-29T01:57:46;95090.50;;;9.93;100.00
69171;BME280;56279;47.902;12.308;2023-04-29T02:00:07;95101.56;;;9.90;100.00
69171;BME280;56279;47.902;12.308;2023-04-29T02:02:17;95096.09;;;9.86;100.00
69171;BME280;56279;47.902;12.308;2023-04-29T02:04:28;95093.75;;;9.85;100.00
69171;BME280;56279;47.902;12.308;2023-04-29T02:06:33;95093.50;;;9.81;100.00
69171;BME280;56279;47.902;12.308;2023-04-29T02:09:06;95090.09;;;9.75;100.00
69171;BME280;56279;47.902;12.308;2023-04-29T02:11:09;95087.75;;;9.74;100.00
69171;BME280;56279;47.902;12.308;2023-04-29T02:13:14;95098.84;;;9.71;100.00
69171;BME280;56279;47.902;12.308;2023-04-29T02:15:17;95087.78;;;9.69;100.00
69171;BME280;56279;47.902;12.308;2023-04-29T02:17:19;95079.09;;;9.68;100.00
69171;BME280;56279;47.902;12.308;2023-04-29T02:19:20;95075.41;;;9.69;100.00
69171;BME280;56279;47.902;12.308;2023-04-29T02:21:21;95079.88;;;9.69;100.00
69171;BME280;56279;47.902;12.308;2023-04-29T02:23:23;95080.19;;;9.67;100.00
69171;BME280;56279;47.902;12.308;2023-04-29T02:25:24;95089.13;;;9.66;100.00
69171;BME280;56279;47.902;12.308;2023-04-29T02:27:25;95080.72;;;9.64;100.00
69171;BME280;56279;47.902;12.308;2023-04-29T02:29:27;95081.50;;;9.65;100.00
69171;BME280;56279;47.902;12.308;2023-04-29T02:31:30;95075.94;;;9.66;100.00
69171;BME280;56279;47.902;12.308;2023-04-29T02:33:31;95087.00;;;9.68;100.00
69171;BME280;56279;47.902;12.308;2023-04-29T02:35:33;95083.31;;;9.69;100.00
69171;BME280;56279;47.902;12.308;2023-04-29T02:37:34;95078.56;;;9.71;100.00
69171;BME280;56279;47.902;12.308;2023-04-29T02:39:37;95081.44;;;9.75;100.00
69171;BME280;56279;47.902;12.308;2023-04-29T02:41:38;95079.03;;;9.79;100.00
69171;BME280;56279;47.902;12.308;2023-04-29T02:43:39;95086.09;;;9.83;100.00
69171;BME280;56279;47.902;12.308;2023-04-29T02:45:40;95077.94;;;9.85;100.00
69171;BME280;56279;47.902;12.308;2023-04-29T02:47:42;95077.09;;;9.89;100.00
69171;BME280;56279;47.902;12.308;2023-04-29T02:49:44;95074.66;;;9.93;100.00
69171;BME280;56279;47.902;12.308;2023-04-29T02:51:46;95074.63;;;9.98;100.00
69171;BME280;56279;47.902;12.308;2023-04-29T02:53:50;95075.13;;;10.00;100.00
69171;BME280;56279;47.902;12.308;2023-04-29T02:55:52;95079.59;;;9.99;100.00
69171;BME280;56279;47.902;12.308;2023-04-29T02:57:53;95090.13;;;10.04;100.00
69171;BME280;56279;47.902;12.308;2023-04-29T02:59:55;95083.50;;;10.07;100.00
69171;BME280;56279;47.902;12.308;2023-04-29T03:01:57;95082.16;;;10.09;100.00
69171;BME280;56279;47.902;12.308;2023-04-29T03:03:59;95085.59;;;10.10;100.00
69171;BME280;56279;47.902;12.308;2023-04-29T03:06:00;95084.28;;;10.12;100.00
69171;BME280;56279;47.902;12.308;2023-04-29T03:08:01;95083.19;;;10.13;100.00
69171;BME280;56279;47.902;12.308;2023-04-29T03:10:11;95080.28;;;10.15;100.00
69171;BME280;56279;47.902;12.308;2023-04-29T03:12:13;95081.31;;;10.19;100.00
69171;BME280;56279;47.902;12.308;2023-04-29T03:14:16;95091.34;;;10.17;100.00
69171;BME280;56279;47.902;12.308;2023-04-29T03:16:18;95083.69;;;10.15;100.00
69171;BME280;56279;47.902;12.308;2023-04-29T03:18:19;95093.47;;;10.15;100.00
69171;BME280;56279;47.902;12.308;2023-04-29T03:20:22;95087.97;;;10.11;100.00
69171;BME280;56279;47.902;12.308;2023-04-29T03:22:23;95083.22;;;10.08;100.00
69171;BME280;56279;47.902;12.308;2023-04-29T03:24:25;95086.94;;;10.07;100.00
69171;BME280;56279;47.902;12.308;2023-04-29T03:26:27;95083.50;;;10.07;100.00
69171;BME280;56279;47.902;12.308;2023-04-29T03:28:28;95083.00;;;10.05;100.00
69171;BME280;56279;47.902;12.308;2023-04-29T03:30:30;95086.69;;;10.04;100.00
69171;BME280;56279;47.902;12.308;2023-04-29T03:32:32;95086.19;;;10.02;100.00
69171;BME280;56279;47.902;12.308;2023-04-29T03:34:34;95080.13;;;10.01;100.00
69171;BME280;56279;47.902;12.308;2023-04-29T03:36:57;95082.25;;;9.99;100.00
69171;BME280;56279;47.902;12.308;2023-04-29T03:38:59;95082.25;;;9.99;100.00
69171;BME280;56279;47.902;12.308;2023-04-29T03:41:01;95081.75;;;9.97;100.00
69171;BME280;56279;47.902;12.308;2023-04-29T03:43:03;95076.47;;;9.97;100.00
69171;BME280;56279;47.902;12.308;2023-04-29T03:45:06;95066.47;;;9.94;100.00
69171;BME280;56279;47.902;12.308;2023-04-29T03:47:07;95072.81;;;9.93;100.00
69171;BME280;56279;47.902;12.308;2023-04-29T03:49:09;95083.38;;;9.93;100.00
69171;BME280;56279;47.902;12.308;2023-04-29T03:51:11;95077.03;;;9.94;100.00
69171;BME280;56279;47.902;12.308;2023-04-29T03:53:13;95079.41;;;9.96;100.00
69171;BME280;56279;47.902;12.308;2023-04-29T03:55:15;95080.91;;;10.02;100.00
69171;BME280;56279;47.902;12.308;2023-04-29T03:57:18;95078.22;;;10.07;100.00
69171;BME280;56279;47.902;12.308;2023-04-29T03:59:19;95079.22;;;10.11;100.00
69171;BME280;56279;47.902;12.308;2023-04-29T04:01:22;95082.69;;;10.11;100.00
69171;BME280;56279;47.902;12.308;2023-04-29T04:03:24;95084.28;;;10.12;100.00
69171;BME280;56279;47.902;12.308;2023-04-29T04:05:29;95085.84;;;10.13;100.00
69171;BME280;56279;47.902;12.308;2023-04-29T04:07:37;95079.75;;;10.13;100.00
69171;BME280;56279;47.902;12.308;2023-04-29T04:10:10;95087.41;;;10.14;100.00
69171;BME280;56279;47.902;12.308;2023-04-29T04:12:12;95093.47;;;10.15;100.00
69171;BME280;56279;47.902;12.308;2023-04-29T04:14:14;95087.41;;;10.14;100.00
69171;BME280;56279;47.902;12.308;2023-04-29T04:16:15;95082.66;;;10.16;100.00
69171;BME280;56279;47.902;12.308;2023-04-29T04:18:17;95090.25;;;10.18;100.00
69171;BME280;56279;47.902;12.308;2023-04-29T04:20:18;95102.41;;;10.19;100.00
69171;BME280;56279;47.902;12.308;2023-04-29T04:22:22;95091.06;;;10.18;100.00
69171;BME280;56279;47.902;12.308;2023-04-29T04:24:40;95093.69;;;10.18;100.00
69171;BME280;56279;47.902;12.308;2023-04-29T04:26:42;95096.03;;;10.20;100.00
69171;BME280;56279;47.902;12.308;2023-04-29T04:28:52;95095.22;;;10.24;100.00
69171;BME280;56279;47.902;12.308;2023-04-29T04:31:02;95097.03;;;10.29;100.00
69171;BME280;56279;47.902;12.308;2023-04-29T04:33:04;95090.91;;;10.33;100.00
69171;BME280;56279;47.902;12.308;2023-04-29T04:35:07;95097.69;;;10.39;100.00
69171;BME280;56279;47.902;12.308;2023-04-29T04:37:09;95098.44;;;10.45;100.00
69171;BME280;56279;47.902;12.308;2023-04-29T04:39:13;95099.16;;;10.51;99.70
69171;BME280;56279;47.902;12.308;2023-04-29T04:41:15;95107.28;;;10.54;99.78
69171;BME280;56279;47.902;12.308;2023-04-29T04:43:18;95109.09;;;10.59;99.64
69171;BME280;56279;47.902;12.308;2023-04-29T04:45:20;95106.66;;;10.62;99.45
69171;BME280;56279;47.902;12.308;2023-04-29T04:47:25;95113.22;;;10.65;99.54
69171;BME280;56279;47.902;12.308;2023-04-29T04:49:41;95109.25;;;10.67;99.46
69171;BME280;56279;47.902;12.308;2023-04-29T04:51:43;95121.09;;;10.70;99.23
69171;BME280;56279;47.902;12.308;2023-04-29T04:53:46;95118.16;;;10.71;99.09
69171;BME280;56279;47.902;12.308;2023-04-29T04:55:54;95122.09;;;10.74;99.10
69171;BME280;56279;47.902;12.308;2023-04-29T04:57:56;95119.69;;;10.77;99.03
69171;BME280;56279;47.902;12.308;2023-04-29T04:59:59;95117.25;;;10.81;99.09
69171;BME280;56279;47.902;12.308;2023-04-29T05:02:01;95117.75;;;10.83;98.71
69171;BME280;56279;47.902;12.308;2023-04-29T05:04:04;95111.13;;;10.85;98.72
69171;BME280;56279;47.902;12.308;2023-04-29T05:06:06;95118.50;;;10.88;98.68
69171;BME280;56279;47.902;12.308;2023-04-29T05:08:07;95118.44;;;10.93;98.83
69171;BME280;56279;47.902;12.308;2023-04-29T05:10:17;95128.63;;;11.00;98.30
69171;BME280;56279;47.902;12.308;2023-04-29T05:12:23;95127.22;;;11.07;98.39
69171;BME280;56279;47.902;12.308;2023-04-29T05:14:27;95121.59;;;11.14;98.13
69171;BME280;56279;47.902;12.308;2023-04-29T05:16:30;95122.31;;;11.20;98.01
69171;BME280;56279;47.902;12.308;2023-04-29T05:18:31;95127.53;;;11.25;97.71
69171;BME280;56279;47.902;12.308;2023-04-29T05:20:33;95125.59;;;11.30;97.51
69171;BME280;56279;47.902;12.308;2023-04-29T05:22:37;95136.41;;;11.34;97.51
69171;BME280;56279;47.902;12.308;2023-04-29T05:24:40;95132.59;;;11.40;97.35
69171;BME280;56279;47.902;12.308;2023-04-29T05:26:41;95134.13;;;11.46;97.18
69171;BME280;56279;47.902;12.308;2023-04-29T05:28:44;95137.75;;;11.50;97.07
69171;BME280;56279;47.902;12.308;2023-04-29T05:30:50;95141.38;;;11.54;97.20
69171;BME280;56279;47.902;12.308;2023-04-29T05:32:55;95147.66;;;11.58;97.03
69171;BME280;56279;47.902;12.308;2023-04-29T05:34:57;95139.66;;;11.63;96.83
69171;BME280;56279;47.902;12.308;2023-04-29T05:37:00;95145.16;;;11.66;96.87
69171;BME280;56279;47.902;12.308;2023-04-29T05:39:01;95149.31;;;11.72;96.80
69171;BME280;56279;47.902;12.308;2023-04-29T05:41:04;95152.19;;;11.76;96.76
69171;BME280;56279;47.902;12.308;2023-04-29T05:43:33;95157.69;;;11.79;96.67
69171;BME280;56279;47.902;12.308;2023-04-29T05:45:35;95160.81;;;11.82;96.57
69171;BME280;56279;47.902;12.308;2023-04-29T05:47:39;95163.38;;;11.87;96.43
69171;BME280;56279;47.902;12.308;2023-04-29T05:49:41;95161.72;;;11.91;96.37
69171;BME280;56279;47.902;12.308;2023-04-29T05:51:42;95164.09;;;11.92;96.42
69171;BME280;56279;47.902;12.308;2023-04-29T05:53:43;95161.72;;;11.91;96.09
69171;BME280;56279;47.902;12.308;2023-04-29T05:55:45;95166.25;;;11.90;96.25
69171;BME280;56279;47.902;12.308;2023-04-29T05:57:47;95165.66;;;11.93;95.95
69171;BME280;56279;47.902;12.308;2023-04-29T05:59:48;95171.16;;;11.97;96.01
69171;BME280;56279;47.902;12.308;2023-04-29T06:01:50;95173.44;;;12.03;95.95
69171;BME280;56279;47.902;12.308;2023-04-29T06:03:52;95172.19;;;12.14;95.94
69171;BME280;56279;47.902;12.308;2023-04-29T06:06:10;95171.66;;;12.31;95.54
69171;BME280;56279;47.902;12.308;2023-04-29T06:08:28;95182.19;;;12.49;94.80
69171;BME280;56279;47.902;12.308;2023-04-29T06:10:36;95182.19;;;12.63;94.12
69171;BME280;56279;47.902;12.308;2023-04-29T06:12:38;95184.38;;;12.75;93.70
69171;BME280;56279;47.902;12.308;2023-04-29T06:14:39;95180.75;;;12.84;93.94
69171;BME280;56279;47.902;12.308;2023-04-29T06:16:40;95179.75;;;12.94;93.41
69171;BME280;56279;47.902;12.308;2023-04-29T06:18:43;95184.88;;;13.04;93.18
69171;BME280;56279;47.902;12.308;2023-04-29T06:20:44;95182.03;;;13.14;92.79
69171;BME280;56279;47.902;12.308;2023-04-29T06:22:45;95178.50;;;13.18;92.63
69171;BME280;56279;47.902;12.308;2023-04-29T06:24:47;95183.78;;;13.18;92.53
69171;BME280;56279;47.902;12.308;2023-04-29T06:27:16;95190.38;;;13.21;92.43
69171;BME280;56279;47.902;12.308;2023-04-29T06:29:18;95189.00;;;13.24;92.29
69171;BME280;56279;47.902;12.308;2023-04-29T06:31:20;95190.28;;;13.26;92.20
69171;BME280;56279;47.902;12.308;2023-04-29T06:33:21;95193.22;;;13.25;91.68
69171;BME280;56279;47.902;12.308;2023-04-29T06:35:25;95192.06;;;13.17;91.98
69171;BME280;56279;47.902;12.308;2023-04-29T06:37:42;95194.91;;;13.07;92.13
69171;BME280;56279;47.902;12.308;2023-04-29T06:40:05;95194.03;;;13.11;92.80
69171;BME280;56279;47.902;12.308;2023-04-29T06:42:25;95198.13;;;13.31;92.69
69171;BME280;56279;47.902;12.308;2023-04-29T06:44:45;95188.88;;;13.56;92.24
69171;BME280;56279;47.902;12.308;2023-04-29T06:47:18;95191.44;;;13.83;90.84
69171;BME280;56279;47.902;12.308;2023-04-29T06:49:32;95191.16;;;14.07;90.33
69171;BME280;56279;47.902;12.308;2023-04-29T06:51:36;95185.03;;;14.28;89.33
69171;BME280;56279;47.902;12.308;2023-04-29T06:53:39;95191.78;;;14.48;88.85
69171;BME280;56279;47.902;12.308;2023-04-29T06:55:40;95192.63;;;14.66;88.73
69171;BME280;56279;47.902;12.308;2023-04-29T06:57:43;95189.91;;;14.79;88.17
69171;BME280;56279;47.902;12.308;2023-04-29T06:59:48;95181.50;;;14.94;87.23
69171;BME280;56279;47.902;12.308;2023-04-29T07:01:50;95188.63;;;15.07;87.18
69171;BME280;56279;47.902;12.308;2023-04-29T07:03:54;95190.03;;;15.22;86.68
69171;BME280;56279;47.902;12.308;2023-04-29T07:05:59;95188.03;;;15.28;86.83
69171;BME280;56279;47.902;12.308;2023-04-29T07:08:00;95195.09;;;15.32;86.64
69171;BME280;56279;47.902;12.308;2023-04-29T07:10:04;95194.00;;;15.33;86.41
69171;BME280;56279;47.902;12.308;2023-04-29T07:12:06;95193.09;;;15.38;86.34
69171;BME280;56279;47.902;12.308;2023-04-29T07:14:08;95197.47;;;15.42;86.30
69171;BME280;56279;47.902;12.308;2023-04-29T07:16:16;95198.22;;;15.43;86.09
69171;BME280;56279;47.902;12.308;2023-04-29T07:18:26;95201.22;;;15.41;86.19
69171;BME280;56279;47.902;12.308;2023-04-29T07:20:27;95199.16;;;15.38;85.50
69171;BME280;56279;47.902;12.308;2023-04-29T07:22:29;95188.06;;;15.36;85.34
69171;BME280;56279;47.902;12.308;2023-04-29T07:24:30;95196.97;;;15.32;85.50
69171;BME280;56279;47.902;12.308;2023-04-29T07:26:32;95195.69;;;15.29;86.02
69171;BME280;56279;47.902;12.308;2023-04-29T07:28:33;95193.50;;;15.22;86.12
69171;BME280;56279;47.902;12.308;2023-04-29T07:30:35;95201.13;;;15.15;86.66
69171;BME280;56279;47.902;12.308;2023-04-29T07:32:38;95199.53;;;15.06;86.79
69171;BME280;56279;47.902;12.308;2023-04-29T07:34:41;95199.50;;;14.97;86.86
69171;BME280;56279;47.902;12.308;2023-04-29T07:36:42;95209.47;;;14.92;87.41
69171;BME280;56279;47.902;12.308;2023-04-29T07:38:43;95214.31;;;14.90;87.55
69171;BME280;56279;47.902;12.308;2023-04-29T07:40:45;95208.22;;;14.89;88.09
69171;BME280;56279;47.902;12.308;2023-04-29T07:42:49;95216.25;;;14.98;87.77
69171;BME280;56279;47.902;12.308;2023-04-29T07:44:52;95209.25;;;15.10;87.87
69171;BME280;56279;47.902;12.308;2023-04-29T07:46:55;95208.19;;;15.29;87.40
69171;BME280;56279;47.902;12.308;2023-04-29T07:48:58;95208.00;;;15.47;87.11
69171;BME280;56279;47.902;12.308;2023-04-29T07:51:00;95207.06;;;15.52;86.63
69171;BME280;56279;47.902;12.308;2023-04-29T07:53:02;95211.75;;;15.46;86.67
69171;BME280;56279;47.902;12.308;2023-04-29T07:55:05;95218.41;;;15.35;86.84
69171;BME280;56279;47.902;12.308;2023-04-29T07:57:06;95216.03;;;15.25;87.21
69171;BME280;56279;47.902;12.308;2023-04-29T07:59:08;95213.97;;;15.13;87.27
69171;BME280;56279;47.902;12.308;2023-04-29T08:01:13;95216.88;;;15.03;87.76
69171;BME280;56279;47.902;12.308;2023-04-29T08:03:16;95222.97;;;14.95;88.01
69171;BME280;56279;47.902;12.308;2023-04-29T08:05:18;95222.78;;;14.92;87.94
69171;BME280;56279;47.902;12.308;2023-04-29T08:07:34;95227.44;;;14.86;87.75
69171;BME280;56279;47.902;12.308;2023-04-29T08:09:38;95222.44;;;14.85;87.44
69171;BME280;56279;47.902;12.308;2023-04-29T08:11:39;95227.28;;;14.91;87.43
69171;BME280;56279;47.902;12.308;2023-04-29T08:13:41;95220.50;;;15.07;87.10
69171;BME280;56279;47.902;12.308;2023-04-29T08:15:43;95217.59;;;15.26;85.90
69171;BME280;56279;47.902;12.308;2023-04-29T08:17:45;95218.44;;;15.44;85.46
69171;BME280;56279;47.902;12.308;2023-04-29T08:19:46;95226.81;;;15.68;84.45
69171;BME280;56279;47.902;12.308;2023-04-29T08:21:48;95223.72;;;15.92;83.13
69171;BME280;56279;47.902;12.308;2023-04-29T08:23:51;95223.22;;;16.15;82.75
69171;BME280;56279;47.902;12.308;2023-04-29T08:25:52;95224.63;;;16.30;82.05
69171;BME280;56279;47.902;12.308;2023-04-29T08:27:55;95227.75;;;16.32;81.86
69171;BME280;56279;47.902;12.308;2023-04-29T08:29:58;95227.16;;;16.26;81.90
69171;BME280;56279;47.902;12.308;2023-04-29T08:31:59;95224.94;;;16.20;82.55
69171;BME280;56279;47.902;12.308;2023-04-29T08:34:01;95233.09;;;16.32;82.15
69171;BME280;56279;47.902;12.308;2023-04-29T08:36:02;95231.50;;;16.48;82.25
69171;BME280;56279;47.902;12.308;2023-04-29T08:38:06;95234.84;;;16.53;81.41
69171;BME280;56279;47.902;12.308;2023-04-29T08:40:07;95232.78;;;16.59;81.31
69171;BME280;56279;47.902;12.308;2023-04-29T08:42:09;95232.16;;;16.71;81.22
69171;BME280;56279;47.902;12.308;2023-04-29T08:44:11;95231.03;;;16.80;80.51
69171;BME280;56279;47.902;12.308;2023-04-29T08:46:13;95232.41;;;16.86;80.07
69171;BME280;56279;47.902;12.308;2023-04-29T08:48:16;95231.28;;;16.96;80.17
69171;BME280;56279;47.902;12.308;2023-04-29T08:50:19;95239.69;;;17.15;79.94
69171;BME280;56279;47.902;12.308;2023-04-29T08:52:21;95234.00;;;17.25;79.55
69171;BME280;56279;47.902;12.308;2023-04-29T08:54:24;95231.78;;;17.27;78.99
69171;BME280;56279;47.902;12.308;2023-04-29T08:56:27;95226.59;;;17.31;79.20
69171;BME280;56279;47.902;12.308;2023-04-29T08:58:33;95228.13;;;17.40;79.29
69171;BME280;56279;47.902;12.308;2023-04-29T09:00:36;95222.78;;;17.40;78.69
69171;BME280;56279;47.902;12.308;2023-04-29T09:02:59;95230.50;;;17.33;79.10
69171;BME280;56279;47.902;12.308;2023-04-29T09:05:07;95223.19;;;17.21;78.88
69171;BME280;56279;47.902;12.308;2023-04-29T09:07:11;95225.41;;;17.19;79.08
69171;BME280;56279;47.902;12.308;2023-04-29T09:09:13;95234.38;;;17.15;79.07
69171;BME280;56279;47.902;12.308;2023-04-29T09:11:17;95222.47;;;17.04;78.75
69171;BME280;56279;47.902;12.308;2023-04-29T09:13:27;95226.41;;;16.98;79.04
69171;BME280;56279;47.902;12.308;2023-04-29T09:15:28;95219.03;;;17.03;79.77
69171;BME280;56279;47.902;12.308;2023-04-29T09:17:59;95221.59;;;17.29;79.22
69171;BME280;56279;47.902;12.308;2023-04-29T09:20:00;95217.06;;;17.59;78.64
69171;BME280;56279;47.902;12.308;2023-04-29T09:22:03;95216.84;;;17.93;77.45
69171;BME280;56279;47.902;12.308;2023-04-29T09:24:04;95208.38;;;18.12;76.40
69171;BME280;56279;47.902;12.308;2023-04-29T09:26:05;95207.28;;;18.13;75.83
69171;BME280;56279;47.902;12.308;2023-04-29T09:28:16;95210.72;;;18.13;75.68
69171;BME280;56279;47.902;12.308;2023-04-29T09:30:18;95207.81;;;18.06;75.74
69171;BME280;56279;47.902;12.308;2023-04-29T09:32:22;95204.91;;;17.90;74.56
69171;BME280;56279;47.902;12.308;2023-04-29T09:34:34;95210.56;;;17.68;75.38
69171;BME280;56279;47.902;12.308;2023-04-29T09:36:49;95217.84;;;17.59;75.30
69171;BME280;56279;47.902;12.308;2023-04-29T09:38:54;95212.19;;;17.61;74.22
69171;BME280;56279;47.902;12.308;2023-04-29T09:40:55;95204.25;;;17.73;74.40
69171;BME280;56279;47.902;12.308;2023-04-29T09:43:00;95204.13;;;17.90;73.37
69171;BME280;56279;47.902;12.308;2023-04-29T09:45:01;95206.22;;;18.05;72.96
69171;BME280;56279;47.902;12.308;2023-04-29T09:47:07;95202.00;;;18.25;72.41
69171;BME280;56279;47.902;12.308;2023-04-29T09:49:36;95196.09;;;18.52;71.16
69171;BME280;56279;47.902;12.308;2023-04-29T09:51:51;95198.28;;;18.71;70.68
69171;BME280;56279;47.902;12.308;2023-04-29T09:53:55;95199.59;;;18.65;69.67
69171;BME280;56279;47.902;12.308;2023-04-29T09:55:58;95188.56;;;18.66;71.88
69171;BME280;56279;47.902;12.308;2023-04-29T09:58:00;95186.69;;;18.67;71.24
69171;BME280;56279;47.902;12.308;2023-04-29T10:00:03;95189.59;;;18.74;70.49
69171;BME280;56279;47.902;12.308;2023-04-29T10:02:15;95188.47;;;18.75;69.83
69171;BME280;56279;47.902;12.308;2023-04-29T10:04:22;95197.00;;;18.56;71.00
69171;BME280;56279;47.902;12.308;2023-04-29T10:06:28;95198.53;;;18.24;71.18
69171;BME280;56279;47.902;12.308;2023-04-29T10:08:31;95198.94;;;17.93;71.17
69171;BME280;56279;47.902;12.308;2023-04-29T10:10:33;95207.31;;;17.63;71.67
69171;BME280;56279;47.902;12.308;2023-04-29T10:12:34;95209.56;;;17.44;73.37
69171;BME280;56279;47.902;12.308;2023-04-29T10:14:41;95199.28;;;17.34;74.23
69171;BME280;56279;47.902;12.308;2023-04-29T10:16:49;95204.06;;;17.19;74.55
69171;BME280;56279;47.902;12.308;2023-04-29T10:18:55;95209.13;;;17.04;74.72
69171;BME280;56279;47.902;12.308;2023-04-29T10:21:01;95205.59;;;16.91;75.57
69171;BME280;56279;47.902;12.308;2023-04-29T10:23:03;95202.63;;;16.84;76.05
69171;BME280;56279;47.902;12.308;2023-04-29T10:25:06;95210.47;;;16.81;77.68
69171;BME280;56279;47.902;12.308;2023-04-29T10:27:13;95200.91;;;16.80;78.14
69171;BME280;56279;47.902;12.308;2023-04-29T10:29:16;95199.81;;;16.81;78.47
69171;BME280;56279;47.902;12.308;2023-04-29T10:31:20;95191.69;;;16.77;79.05
69171;BME280;56279;47.902;12.308;2023-04-29T10:33:23;95199.63;;;16.86;79.67
69171;BME280;56279;47.902;12.308;2023-04-29T10:38:00;95189.09;;;17.27;77.13
69171;BME280;56279;47.902;12.308;2023-04-29T10:40:15;95186.66;;;17.51;76.52
69171;BME280;56279;47.902;12.308;2023-04-29T10:42:33;95184.16;;;17.75;75.53
69171;BME280;56279;47.902;12.308;2023-04-29T10:47:31;95172.72;;;18.28;76.30
69171;BME280;56279;47.902;12.308;2023-04-29T10:49:35;95177.59;;;18.47;76.14
69171;BME280;56279;47.902;12.308;2023-04-29T10:51:44;95169.81;;;18.54;74.86
69171;BME280;56279;47.902;12.308;2023-04-29T10:54:16;95169.91;;;18.45;74.92
69171;BME280;56279;47.902;12.308;2023-04-29T10:56:18;95163.16;;;18.27;74.90
69171;BME280;56279;47.902;12.308;2023-04-29T11:00:39;95167.97;;;17.92;75.78
69171;BME280;56279;47.902;12.308;2023-04-29T11:02:40;95170.28;;;17.82;76.01
69171;BME280;56279;47.902;12.308;2023-04-29T11:05:05;95180.28;;;17.64;75.73
69171;BME280;56279;47.902;12.308;2023-04-29T11:07:07;95175.34;;;17.46;76.45
69171;BME280;56279;47.902;12.308;2023-04-29T11:09:13;95166.50;;;17.33;77.90
69171;BME280;56279;47.902;12.308;2023-04-29T11:11:16;95162.31;;;17.23;78.95